Time,TemperatureF,DewpointF,PressureIn,WindDirection,WindDirectionDegrees,WindSpeedMPH,WindSpeedGustMPH,Humidity,HourlyPrecipIn,Conditions,Clouds,dailyrainin,SoftwareType,DateUTC
2013-06-13 00:09:00,71.7,68.0,29.70,NW,311,0.0,0.0,88,0.00,,,0.00,weatherlink.com 1.10,2013-06-13 04:09:00,
2013-06-13 00:24:00,71.4,68.0,29.70,NW,311,0.0,0.0,89,0.00,,,0.00,weatherlink.com 1.10,2013-06-13 04:24:00,
2013-06-13 00:40:00,71.0,68.0,29.70,NW,311,0.0,0.0,89,0.00,,,0.00,weatherlink.com 1.10,2013-06-13 04:40:00,
2013-06-13 00:54:00,70.7,68.0,29.70,NW,311,0.0,0.0,90,0.00,,,0.00,weatherlink.com 1.10,2013-06-13 04:54:00,
2013-06-13 01:09:00,70.4,68.0,29.70,NW,311,0.0,0.0,91,0.00,,,0.00,weatherlink.com 1.10,2013-06-13 05:09:00,
2013-06-13 01:24:00,70.2,68.0,29.68,NW,311,0.0,0.0,91,0.00,,,0.00,weatherlink.com 1.10,2013-06-13 05:24:00,
2013-06-13 01:39:00,70.0,68.0,29.68,NW,311,0.0,0.0,92,0.00,,,0.00,weatherlink.com 1.10,2013-06-13 05:39:00,
2013-06-13 01:54:00,69.7,68.0,29.68,NW,311,0.0,0.0,93,0.00,,,0.00,weatherlink.com 1.10,2013-06-13 05:54:00,
2013-06-13 02:09:00,69.7,67.0,29.69,NW,311,1.0,2.0,92,0.00,,,0.00,weatherlink.com 1.10,2013-06-13 06:09:00,
2013-06-13 02:24:00,70.4,68.0,29.69,NW,315,1.0,3.0,91,0.00,,,0.00,weatherlink.com 1.10,2013-06-13 06:24:00,
2013-06-13 02:39:00,70.9,68.0,29.68,NW,315,0.0,1.0,90,0.00,,,0.00,weatherlink.com 1.10,2013-06-13 06:39:00,
2013-06-13 02:55:00,70.8,68.0,29.67,WNW,287,1.0,1.0,91,0.01,,,0.01,weatherlink.com 1.10,2013-06-13 06:55:00,
2013-06-13 03:10:00,70.6,68.0,29.66,SW,223,1.0,2.0,92,0.03,,,0.03,weatherlink.com 1.10,2013-06-13 07:10:00,
2013-06-13 03:25:00,70.4,68.0,29.64,SE,140,2.0,4.0,93,0.04,,,0.04,weatherlink.com 1.10,2013-06-13 07:25:00,
2013-06-13 03:40:00,70.4,69.0,29.64,SSE,157,0.0,2.0,94,0.06,,,0.06,weatherlink.com 1.10,2013-06-13 07:40:00,
2013-06-13 03:56:00,70.2,69.0,29.63,ESE,102,0.0,2.0,94,0.06,,,0.07,weatherlink.com 1.10,2013-06-13 07:56:00,
2013-06-13 04:10:00,70.0,68.0,29.62,ESE,109,0.0,1.0,94,0.04,,,0.07,weatherlink.com 1.10,2013-06-13 08:10:00,
2013-06-13 04:25:00,69.7,68.0,29.60,ESE,108,0.0,1.0,95,0.03,,,0.07,weatherlink.com 1.10,2013-06-13 08:25:00,
2013-06-13 04:40:00,69.6,68.0,29.60,ESE,108,0.0,1.0,95,0.01,,,0.07,weatherlink.com 1.10,2013-06-13 08:40:00,
2013-06-13 04:55:00,69.4,68.0,29.58,ESE,108,0.0,0.0,95,0.00,,,0.07,weatherlink.com 1.10,2013-06-13 08:55:00,
2013-06-13 05:10:00,69.2,68.0,29.58,ESE,108,0.0,1.0,96,0.00,,,0.07,weatherlink.com 1.10,2013-06-13 09:10:00,
2013-06-13 05:25:00,69.0,68.0,29.58,ESE,108,0.0,0.0,96,0.00,,,0.07,weatherlink.com 1.10,2013-06-13 09:25:00,
2013-06-13 05:40:00,68.8,68.0,29.58,ESE,108,0.0,0.0,96,0.00,,,0.07,weatherlink.com 1.10,2013-06-13 09:40:00,
2013-06-13 05:55:00,68.7,68.0,29.58,ESE,108,0.0,0.0,96,0.00,,,0.07,weatherlink.com 1.10,2013-06-13 09:55:00,
2013-06-13 06:10:00,68.8,68.0,29.57,ESE,108,0.0,0.0,97,0.00,,,0.07,weatherlink.com 1.10,2013-06-13 10:10:00,
2013-06-13 06:25:00,68.9,68.0,29.55,ESE,108,0.0,0.0,97,0.00,,,0.07,weatherlink.com 1.10,2013-06-13 10:25:00,
2013-06-13 06:40:00,68.9,68.0,29.55,ESE,108,0.0,0.0,97,0.00,,,0.07,weatherlink.com 1.10,2013-06-13 10:40:00,
2013-06-13 06:55:00,68.9,68.0,29.56,ESE,109,0.0,1.0,97,0.00,,,0.07,weatherlink.com 1.10,2013-06-13 10:55:00,
2013-06-13 07:10:00,69.1,68.0,29.54,SW,236,0.0,2.0,97,0.00,,,0.07,weatherlink.com 1.10,2013-06-13 11:10:00,
2013-06-13 07:25:00,69.2,68.0,29.55,WNW,302,5.0,5.0,97,0.00,,,0.07,weatherlink.com 1.10,2013-06-13 11:25:00,
2013-06-13 07:40:00,68.9,67.0,29.59,WNW,288,4.0,12.0,92,0.24,,,0.31,weatherlink.com 1.10,2013-06-13 11:40:00,
2013-06-13 07:55:00,67.6,66.0,29.60,WNW,294,0.0,5.0,95,0.26,,,0.33,weatherlink.com 1.10,2013-06-13 11:55:00,
2013-06-13 08:10:00,67.4,66.0,29.60,WSW,244,0.0,2.0,96,0.28,,,0.35,weatherlink.com 1.10,2013-06-13 12:10:00,
2013-06-13 08:25:00,67.4,66.0,29.59,WSW,256,0.0,1.0,96,0.30,,,0.37,weatherlink.com 1.10,2013-06-13 12:25:00,
2013-06-13 08:40:00,67.4,66.0,29.58,WSW,256,0.0,1.0,96,0.06,,,0.37,weatherlink.com 1.10,2013-06-13 12:40:00,
2013-06-13 08:55:00,67.2,66.0,29.58,NE,37,0.0,7.0,96,0.06,,,0.39,weatherlink.com 1.10,2013-06-13 12:55:00,
2013-06-13 09:10:00,67.3,67.0,29.54,NNW,332,1.0,4.0,97,0.04,,,0.39,weatherlink.com 1.10,2013-06-13 13:10:00,
2013-06-13 09:25:00,67.4,67.0,29.52,WSW,238,1.0,6.0,97,0.03,,,0.40,weatherlink.com 1.10,2013-06-13 13:25:00,
2013-06-13 09:40:00,67.6,66.0,29.57,West,281,4.0,11.0,94,0.03,,,0.41,weatherlink.com 1.10,2013-06-13 13:40:00,
2013-06-13 09:55:00,67.9,66.0,29.52,SW,228,2.0,7.0,92,0.02,,,0.41,weatherlink.com 1.10,2013-06-13 13:55:00,
2013-06-13 10:10:00,68.1,65.0,29.50,NW,319,1.0,7.0,90,0.02,,,0.41,weatherlink.com 1.10,2013-06-13 14:10:00,
2013-06-13 10:25:00,68.5,65.0,29.48,WNW,292,2.0,8.0,87,0.01,,,0.41,weatherlink.com 1.10,2013-06-13 14:25:00,
2013-06-13 10:40:00,68.9,64.0,29.48,NW,317,2.0,7.0,84,0.00,,,0.41,weatherlink.com 1.10,2013-06-13 14:40:00,
2013-06-13 10:55:00,69.6,65.0,29.49,WNW,297,3.0,6.0,85,0.00,,,0.41,weatherlink.com 1.10,2013-06-13 14:55:00,
2013-06-13 11:10:00,71.7,68.0,29.50,NNE,32,2.0,7.0,87,0.00,,,0.41,weatherlink.com 1.10,2013-06-13 15:10:00,
2013-06-13 11:26:00,74.4,68.0,29.50,NW,323,5.0,12.0,80,0.00,,,0.41,weatherlink.com 1.10,2013-06-13 15:26:00,
2013-06-13 11:40:00,76.2,68.0,29.49,NW,306,1.0,12.0,76,0.00,,,0.41,weatherlink.com 1.10,2013-06-13 15:40:00,
2013-06-13 11:55:00,77.7,68.0,29.45,SW,234,1.0,16.0,73,0.00,,,0.41,weatherlink.com 1.10,2013-06-13 15:55:00,
2013-06-13 12:10:00,77.1,67.0,29.46,WNW,302,3.0,8.0,71,0.00,,,0.41,weatherlink.com 1.10,2013-06-13 16:10:00,
2013-06-13 12:26:00,78.5,68.0,29.45,WNW,302,7.0,16.0,69,0.00,,,0.41,weatherlink.com 1.10,2013-06-13 16:26:00,
2013-06-13 12:40:00,79.6,68.0,29.45,WNW,296,5.0,13.0,67,0.00,,,0.41,weatherlink.com 1.10,2013-06-13 16:40:00,
2013-06-13 12:55:00,81.3,70.0,29.45,NW,316,3.0,13.0,68,0.00,,,0.41,weatherlink.com 1.10,2013-06-13 16:55:00,
2013-06-13 13:11:00,81.0,68.0,29.45,WNW,284,5.0,13.0,64,0.00,,,0.41,weatherlink.com 1.10,2013-06-13 17:11:00,
2013-06-13 13:26:00,80.3,68.0,29.45,WNW,292,4.0,13.0,67,0.00,,,0.41,weatherlink.com 1.10,2013-06-13 17:26:00,
2013-06-13 13:40:00,81.2,70.0,29.44,WNW,292,8.0,15.0,69,0.00,,,0.41,weatherlink.com 1.10,2013-06-13 17:40:00,
2013-06-13 13:56:00,82.0,70.0,29.44,West,275,5.0,14.0,66,0.00,,,0.41,weatherlink.com 1.10,2013-06-13 17:56:00,
2013-06-13 14:11:00,83.0,70.0,29.45,WNW,298,4.0,14.0,66,0.00,,,0.41,weatherlink.com 1.10,2013-06-13 18:11:00,
2013-06-13 14:26:00,83.5,69.0,29.43,SSE,153,1.0,16.0,61,0.00,,,0.41,weatherlink.com 1.10,2013-06-13 18:26:00,
2013-06-13 14:42:00,82.3,68.0,29.44,WNW,294,10.0,12.0,62,0.00,,,0.41,weatherlink.com 1.10,2013-06-13 18:42:00,
2013-06-13 14:56:00,80.6,68.0,29.43,West,278,3.0,11.0,65,0.00,,,0.41,weatherlink.com 1.10,2013-06-13 18:56:00,
2013-06-13 15:11:00,78.7,66.0,29.44,NW,317,3.0,12.0,66,0.00,,,0.41,weatherlink.com 1.10,2013-06-13 19:11:00,
2013-06-13 15:26:00,77.4,68.0,29.44,WNW,301,7.0,9.0,73,0.00,,,0.41,weatherlink.com 1.10,2013-06-13 19:26:00,
2013-06-13 15:41:00,75.3,68.0,29.43,WNW,290,2.0,7.0,79,0.03,,,0.44,weatherlink.com 1.10,2013-06-13 19:41:00,
2013-06-13 15:56:00,73.9,69.0,29.42,NW,326,0.0,6.0,85,0.04,,,0.45,weatherlink.com 1.10,2013-06-13 19:56:00,
2013-06-13 16:11:00,74.0,71.0,29.42,WNW,303,1.0,3.0,90,0.05,,,0.46,weatherlink.com 1.10,2013-06-13 20:11:00,
2013-06-13 16:26:00,74.9,71.0,29.41,WNW,299,4.0,5.0,86,0.05,,,0.46,weatherlink.com 1.10,2013-06-13 20:26:00,
2013-06-13 16:40:00,74.6,70.0,29.41,WNW,292,3.0,8.0,84,0.02,,,0.46,weatherlink.com 1.10,2013-06-13 20:40:00,
2013-06-13 16:56:00,73.7,69.0,29.43,WNW,302,3.0,10.0,84,0.01,,,0.46,weatherlink.com 1.10,2013-06-13 20:56:00,
2013-06-13 17:11:00,73.4,68.0,29.43,NW,319,4.0,8.0,83,0.00,,,0.46,weatherlink.com 1.10,2013-06-13 21:11:00,
2013-06-13 17:25:00,73.0,68.0,29.43,West,281,6.0,8.0,83,0.00,,,0.46,weatherlink.com 1.10,2013-06-13 21:25:00,
2013-06-13 17:41:00,72.6,67.0,29.43,West,277,4.0,13.0,83,0.00,,,0.46,weatherlink.com 1.10,2013-06-13 21:41:00,
2013-06-13 17:56:00,71.9,67.0,29.43,WNW,286,4.0,8.0,85,0.00,,,0.46,weatherlink.com 1.10,2013-06-13 21:56:00,
2013-06-13 18:11:00,71.7,67.0,29.43,NW,309,3.0,7.0,86,0.00,,,0.46,weatherlink.com 1.10,2013-06-13 22:11:00,
2013-06-13 18:26:00,71.7,66.0,29.44,WNW,285,4.0,8.0,81,0.00,,,0.46,weatherlink.com 1.10,2013-06-13 22:26:00,
2013-06-13 18:41:00,71.4,65.0,29.46,NW,310,6.0,10.0,79,0.00,,,0.46,weatherlink.com 1.10,2013-06-13 22:41:00,
2013-06-13 18:56:00,70.6,62.0,29.48,WNW,297,13.0,20.0,73,0.00,,,0.46,weatherlink.com 1.10,2013-06-13 22:56:00,
2013-06-13 19:11:00,70.1,61.0,29.49,WNW,291,5.0,18.0,73,0.00,,,0.46,weatherlink.com 1.10,2013-06-13 23:11:00,
2013-06-13 19:26:00,69.5,61.0,29.50,West,261,4.0,12.0,74,0.00,,,0.46,weatherlink.com 1.10,2013-06-13 23:26:00,
2013-06-13 19:41:00,69.1,60.0,29.49,WNW,294,9.0,13.0,72,0.00,,,0.46,weatherlink.com 1.10,2013-06-13 23:41:00,
2013-06-13 19:56:00,69.4,60.0,29.49,West,279,6.0,14.0,72,0.00,,,0.46,weatherlink.com 1.10,2013-06-13 23:56:00,
2013-06-13 20:11:00,69.4,60.0,29.50,WNW,288,8.0,12.0,72,0.00,,,0.46,weatherlink.com 1.10,2013-06-14 00:11:00,
2013-06-13 20:26:00,69.0,60.0,29.51,WNW,286,4.0,10.0,72,0.00,,,0.46,weatherlink.com 1.10,2013-06-14 00:26:00,
2013-06-13 20:41:00,68.6,59.0,29.51,WNW,286,6.0,15.0,72,0.00,,,0.46,weatherlink.com 1.10,2013-06-14 00:41:00,
2013-06-13 20:56:00,68.2,59.0,29.52,WNW,302,2.0,13.0,73,0.00,,,0.46,weatherlink.com 1.10,2013-06-14 00:56:00,
2013-06-13 21:26:00,67.9,58.0,29.52,WNW,298,12.0,14.0,71,0.00,,,0.46,weatherlink.com 1.10,2013-06-14 01:26:00,
2013-06-13 21:41:00,67.8,58.0,29.54,WNW,284,4.0,11.0,70,0.00,,,0.46,weatherlink.com 1.10,2013-06-14 01:41:00,
2013-06-13 21:56:00,67.8,57.0,29.54,NW,309,10.0,16.0,69,0.00,,,0.46,weatherlink.com 1.10,2013-06-14 01:56:00,
2013-06-13 22:11:00,67.9,56.0,29.54,WNW,300,4.0,14.0,67,0.00,,,0.46,weatherlink.com 1.10,2013-06-14 02:11:00,
2013-06-13 22:26:00,67.7,56.0,29.54,WNW,284,7.0,17.0,67,0.00,,,0.46,weatherlink.com 1.10,2013-06-14 02:26:00,
2013-06-13 22:41:00,67.6,56.0,29.54,WNW,297,3.0,11.0,66,0.00,,,0.46,weatherlink.com 1.10,2013-06-14 02:41:00,
2013-06-13 22:56:00,67.3,56.0,29.54,NNW,337,4.0,13.0,67,0.00,,,0.46,weatherlink.com 1.10,2013-06-14 02:56:00,
2013-06-13 23:11:00,67.1,56.0,29.54,WNW,291,6.0,11.0,68,0.00,,,0.46,weatherlink.com 1.10,2013-06-14 03:11:00,
2013-06-13 23:26:00,67.0,56.0,29.55,West,276,8.0,12.0,67,0.00,,,0.46,weatherlink.com 1.10,2013-06-14 03:26:00,
2013-06-13 23:41:00,66.8,56.0,29.55,NW,309,3.0,8.0,68,0.00,,,0.46,weatherlink.com 1.10,2013-06-14 03:41:00,
2013-06-13 23:56:00,66.8,56.0,29.56,West,273,7.0,19.0,68,0.00,,,0.46,weatherlink.com 1.10,2013-06-14 03:56:00,